createdAt,value
2022-08-30T00:02:06.961Z,19.00
2022-08-30T00:04:35.085Z,19.00
2022-08-30T00:07:03.871Z,18.90
2022-08-30T00:09:32.571Z,18.90
2022-08-30T00:12:01.391Z,18.90
2022-08-30T00:14:28.657Z,18.90
2022-08-30T00:16:56.361Z,18.80
2022-08-30T00:19:26.450Z,18.80
2022-08-30T00:21:53.661Z,18.80
2022-08-30T00:24:20.832Z,18.80
2022-08-30T00:26:50.809Z,18.80
2022-08-30T00:29:17.970Z,18.80
2022-08-30T00:31:45.072Z,18.70
2022-08-30T00:34:12.313Z,18.70
2022-08-30T00:36:39.472Z,18.70
2022-08-30T00:39:07.741Z,18.70
2022-08-30T00:41:35.121Z,18.70
2022-08-30T00:44:04.956Z,18.60
2022-08-30T00:46:32.657Z,18.60
2022-08-30T00:49:03.867Z,18.60
2022-08-30T00:51:31.895Z,18.50
2022-08-30T00:53:59.387Z,18.50
2022-08-30T00:56:27.754Z,18.60
2022-08-30T00:59:01.222Z,18.50
2022-08-30T01:01:30.474Z,18.50
2022-08-30T01:04:02.365Z,18.50
2022-08-30T01:06:32.595Z,18.40
2022-08-30T01:09:02.210Z,18.40
2022-08-30T01:11:34.363Z,18.40
2022-08-30T01:14:08.039Z,18.40
2022-08-30T01:16:36.173Z,18.40
2022-08-30T01:19:06.809Z,18.30
2022-08-30T01:21:46.837Z,18.30
2022-08-30T01:24:14.843Z,18.30
2022-08-30T01:26:42.114Z,18.30
2022-08-30T01:29:13.290Z,18.30
2022-08-30T01:31:40.489Z,18.20
2022-08-30T01:34:08.263Z,18.20
2022-08-30T01:36:44.955Z,18.20
2022-08-30T01:39:15.490Z,18.20
2022-08-30T01:41:43.694Z,18.20
2022-08-30T01:44:14.724Z,18.10
2022-08-30T01:46:45.927Z,18.10
2022-08-30T01:49:16.227Z,18.10
2022-08-30T01:51:44.038Z,18.10
2022-08-30T01:54:11.564Z,18.10
2022-08-30T01:56:38.844Z,18.00
2022-08-30T01:59:06.411Z,18.00
2022-08-30T02:01:37.258Z,18.00
2022-08-30T02:04:05.207Z,18.00
2022-08-30T02:06:32.588Z,18.00
2022-08-30T02:09:00.335Z,18.00
2022-08-30T02:11:27.763Z,18.00
2022-08-30T02:13:57.818Z,18.00
2022-08-30T02:16:26.077Z,18.00
2022-08-30T02:18:59.134Z,18.00
2022-08-30T02:21:27.817Z,18.00
2022-08-30T02:24:44.397Z,18.00
2022-08-30T02:27:14.687Z,17.90
2022-08-30T02:29:42.015Z,17.90
2022-08-30T02:32:09.186Z,17.90
2022-08-30T02:34:36.507Z,17.90
2022-08-30T02:37:06.202Z,17.90
2022-08-30T02:39:33.525Z,17.90
2022-08-30T02:42:00.758Z,17.90
2022-08-30T02:44:30.737Z,17.90
2022-08-30T02:46:57.985Z,17.90
2022-08-30T02:49:33.862Z,17.80
2022-08-30T02:52:02.270Z,17.90
2022-08-30T02:54:32.470Z,17.80
2022-08-30T02:57:05.010Z,17.80
2022-08-30T02:59:33.290Z,17.80
2022-08-30T03:02:00.646Z,17.80
2022-08-30T03:04:27.870Z,17.80
2022-08-30T03:06:55.185Z,17.70
2022-08-30T03:09:22.521Z,17.70
2022-08-30T03:11:49.695Z,17.70
2022-08-30T03:14:16.896Z,17.70
2022-08-30T03:16:44.171Z,17.70
2022-08-30T03:19:11.403Z,17.70
2022-08-30T03:21:38.842Z,17.70
2022-08-30T03:24:06.469Z,17.70
2022-08-30T03:26:33.730Z,17.70
2022-08-30T03:29:00.864Z,17.60
2022-08-30T03:31:28.181Z,17.60
2022-08-30T03:33:55.576Z,17.60
2022-08-30T03:36:22.885Z,17.60
2022-08-30T03:38:50.159Z,17.60
2022-08-30T03:41:17.456Z,17.60
2022-08-30T03:43:47.490Z,17.60
2022-08-30T03:46:15.294Z,17.60
2022-08-30T03:48:42.719Z,17.60
2022-08-30T03:51:10.048Z,17.60
2022-08-30T03:53:37.173Z,17.50
2022-08-30T03:56:04.578Z,17.50
2022-08-30T03:58:32.184Z,17.50
2022-08-30T04:00:59.377Z,17.50
2022-08-30T04:03:26.668Z,17.50
2022-08-30T04:05:55.428Z,17.50
2022-08-30T04:08:22.983Z,17.50
2022-08-30T04:10:50.910Z,17.50
2022-08-30T04:13:18.385Z,17.40
2022-08-30T04:15:45.600Z,17.40
2022-08-30T04:18:12.855Z,17.40
2022-08-30T04:20:40.249Z,17.40
2022-08-30T04:23:07.686Z,17.40
2022-08-30T04:25:36.105Z,17.40
2022-08-30T04:28:04.419Z,17.40
2022-08-30T04:30:31.907Z,17.40
2022-08-30T04:33:01.954Z,17.30
2022-08-30T04:35:29.156Z,17.30
2022-08-30T04:37:56.325Z,17.30
2022-08-30T04:40:23.572Z,17.30
2022-08-30T04:42:54.650Z,17.30
2022-08-30T04:45:22.589Z,17.30
2022-08-30T04:47:49.845Z,17.20
2022-08-30T04:50:19.698Z,17.20
2022-08-30T04:52:47.594Z,17.20
2022-08-30T04:55:19.526Z,17.20
2022-08-30T04:57:48.139Z,17.20
2022-08-30T05:00:20.885Z,17.20
2022-08-30T05:02:49.141Z,17.20
2022-08-30T05:05:34.994Z,17.20
2022-08-30T05:08:05.519Z,17.20
2022-08-30T05:10:36.732Z,17.20
2022-08-30T05:13:35.705Z,17.20
2022-08-30T05:16:10.872Z,17.20
2022-08-30T05:18:40.714Z,17.20
2022-08-30T05:21:12.404Z,17.20
2022-08-30T05:23:40.732Z,17.20
2022-08-30T05:26:29.673Z,17.20
2022-08-30T05:28:59.968Z,17.20
2022-08-30T05:31:33.137Z,17.20
2022-08-30T05:34:01.432Z,17.20
2022-08-30T05:36:31.586Z,17.20
2022-08-30T05:39:00.658Z,17.20
2022-08-30T05:41:29.138Z,17.10
2022-08-30T05:44:00.986Z,17.20
2022-08-30T05:49:06.725Z,17.10
2022-08-30T05:51:36.784Z,17.20
2022-08-30T05:54:12.028Z,17.10
2022-08-30T05:56:43.396Z,17.20
2022-08-30T05:59:11.346Z,17.20
2022-08-30T06:01:44.798Z,17.10
2022-08-30T06:04:13.104Z,17.20
2022-08-30T06:06:43.218Z,17.20
2022-08-30T06:09:12.190Z,17.20
2022-08-30T06:11:39.581Z,17.20
2022-08-30T06:14:07.542Z,17.20
2022-08-30T06:16:35.992Z,17.20
2022-08-30T06:19:03.362Z,17.20
2022-08-30T06:21:36.985Z,17.20
2022-08-30T06:24:07.010Z,17.20
2022-08-30T06:26:41.418Z,17.20
2022-08-30T06:29:15.024Z,17.20
2022-08-30T06:31:42.876Z,17.20
2022-08-30T06:34:10.226Z,17.20
2022-08-30T06:36:40.414Z,17.20
2022-08-30T06:39:08.412Z,17.20
2022-08-30T06:41:37.922Z,17.20
2022-08-30T06:44:06.752Z,17.20
2022-08-30T06:46:37.743Z,17.20
2022-08-30T06:49:06.469Z,17.30
2022-08-30T06:51:39.679Z,17.30
2022-08-30T06:54:12.113Z,17.30
2022-08-30T06:56:55.189Z,17.30
2022-08-30T06:59:27.039Z,17.30
2022-08-30T07:01:57.962Z,17.30
2022-08-30T07:04:27.482Z,17.40
2022-08-30T07:06:54.822Z,17.40
2022-08-30T07:09:22.910Z,17.40
2022-08-30T07:11:52.053Z,17.40
2022-08-30T07:14:29.960Z,17.40
2022-08-30T07:16:57.412Z,17.40
2022-08-30T07:19:24.543Z,17.50
2022-08-30T07:21:54.811Z,17.50
2022-08-30T07:24:26.233Z,17.50
2022-08-30T07:26:56.433Z,17.60
2022-08-30T07:29:26.664Z,17.60
2022-08-30T07:31:53.828Z,17.70
2022-08-30T07:34:22.380Z,17.70
2022-08-30T07:36:49.711Z,17.70
2022-08-30T07:39:16.979Z,17.70
2022-08-30T07:41:44.509Z,17.80
2022-08-30T07:44:15.269Z,17.80
2022-08-30T07:46:43.061Z,17.90
2022-08-30T07:49:12.648Z,17.90
2022-08-30T07:51:41.848Z,18.00
2022-08-30T07:54:09.484Z,18.00
2022-08-30T07:56:36.686Z,18.00
2022-08-30T07:59:04.540Z,18.10
2022-08-30T08:01:32.176Z,18.20
2022-08-30T08:03:59.470Z,18.20
2022-08-30T08:06:27.863Z,18.20
2022-08-30T08:09:02.565Z,18.20
2022-08-30T08:11:33.744Z,18.20
2022-08-30T08:14:02.422Z,18.20
2022-08-30T08:16:31.280Z,18.20
2022-08-30T08:18:58.678Z,18.30
2022-08-30T08:21:27.388Z,18.30
2022-08-30T08:23:54.796Z,18.30
2022-08-30T08:26:22.711Z,18.20
2022-08-30T08:28:50.099Z,18.30
2022-08-30T08:31:21.101Z,18.20
2022-08-30T08:33:48.774Z,18.30
2022-08-30T08:36:19.439Z,18.20
2022-08-30T08:38:47.135Z,18.30
2022-08-30T08:41:28.904Z,18.20
2022-08-30T08:43:56.348Z,18.30
2022-08-30T08:46:36.461Z,18.30
2022-08-30T08:49:08.405Z,18.30
2022-08-30T08:52:08.050Z,18.20
2022-08-30T08:54:48.859Z,18.30
2022-08-30T08:57:22.711Z,18.30
2022-08-30T08:59:54.503Z,18.40
2022-08-30T09:02:35.079Z,18.40
2022-08-30T09:05:03.447Z,18.40
2022-08-30T09:07:37.478Z,18.40
2022-08-30T09:10:08.483Z,18.50
2022-08-30T09:12:35.889Z,18.50
2022-08-30T09:15:20.221Z,18.50
2022-08-30T09:17:53.826Z,18.60
2022-08-30T09:20:37.465Z,18.60
2022-08-30T09:23:17.506Z,18.70
2022-08-30T09:26:14.016Z,18.80
2022-08-30T09:28:51.945Z,18.80
2022-08-30T09:31:19.099Z,18.90
2022-08-30T09:34:07.498Z,18.90
2022-08-30T09:36:44.176Z,18.90
2022-08-30T09:39:29.864Z,18.90
2022-08-30T09:42:13.757Z,18.90
2022-08-30T09:44:40.992Z,18.90
2022-08-30T09:47:44.768Z,18.90
2022-08-30T09:50:19.949Z,19.00
2022-08-30T09:53:10.116Z,19.10
2022-08-30T09:56:02.407Z,19.10
2022-08-30T09:59:04.087Z,19.20
2022-08-30T10:01:37.770Z,19.30
2022-08-30T10:04:31.393Z,19.30
2022-08-30T10:07:15.846Z,19.30
2022-08-30T10:09:46.031Z,19.30
2022-08-30T10:12:25.782Z,19.40
2022-08-30T10:15:04.971Z,19.60
2022-08-30T10:17:53.647Z,19.60
2022-08-30T10:20:31.442Z,19.80
2022-08-30T10:23:33.548Z,19.90
2022-08-30T10:26:21.754Z,20.00
2022-08-30T10:28:55.961Z,20.10
2022-08-30T10:31:47.206Z,20.10
2022-08-30T10:34:20.364Z,20.20
2022-08-30T10:36:56.582Z,20.30
2022-08-30T10:39:30.974Z,20.40
2022-08-30T10:42:21.677Z,20.40
2022-08-30T10:44:56.797Z,20.50
2022-08-30T10:47:45.019Z,20.40
2022-08-30T10:50:24.586Z,20.50
2022-08-30T10:52:58.463Z,20.60
2022-08-30T10:55:49.873Z,20.60
2022-08-30T10:58:18.597Z,20.70
2022-08-30T11:01:12.669Z,20.90
2022-08-30T11:03:52.225Z,21.00
2022-08-30T11:06:37.046Z,21.20
2022-08-30T11:09:27.951Z,21.40
2022-08-30T11:12:17.386Z,21.20
2022-08-30T11:14:46.285Z,21.30
2022-08-30T11:17:44.202Z,21.40
2022-08-30T11:20:30.832Z,21.40
2022-08-30T11:23:34.210Z,21.40
2022-08-30T11:26:21.321Z,21.40
2022-08-30T11:28:48.545Z,21.40
2022-08-30T11:31:18.850Z,21.30
2022-08-30T11:33:53.230Z,21.30
2022-08-30T11:36:37.237Z,21.30
2022-08-30T11:39:42.671Z,21.30
2022-08-30T11:42:14.094Z,21.30
2022-08-30T11:44:41.349Z,21.30
2022-08-30T11:47:47.016Z,21.30
2022-08-30T11:50:27.182Z,21.30
2022-08-30T11:53:03.218Z,21.20
2022-08-30T11:55:38.150Z,21.20
2022-08-30T11:58:23.818Z,21.20
2022-08-30T12:01:40.797Z,21.20
2022-08-30T12:04:15.555Z,21.30
2022-08-30T12:06:43.158Z,21.30
2022-08-30T12:09:25.184Z,21.30
2022-08-30T12:12:00.678Z,21.30
2022-08-30T12:15:01.886Z,21.30
2022-08-30T12:18:06.884Z,21.40
2022-08-30T12:20:47.675Z,21.70
2022-08-30T12:23:51.335Z,21.60
2022-08-30T12:26:27.128Z,21.60
2022-08-30T12:29:06.824Z,21.60
2022-08-30T12:31:44.307Z,21.60
2022-08-30T12:34:38.835Z,21.60
2022-08-30T12:37:27.257Z,21.70
2022-08-30T12:40:16.109Z,21.70
2022-08-30T12:42:57.291Z,21.70
2022-08-30T12:45:33.104Z,21.70
2022-08-30T12:48:10.274Z,21.70
2022-08-30T12:50:49.039Z,21.70
2022-08-30T12:53:42.250Z,21.70
2022-08-30T12:56:19.001Z,21.80
2022-08-30T12:58:53.545Z,21.80
2022-08-30T13:01:29.823Z,21.90
2022-08-30T13:04:03.008Z,22.10
2022-08-30T13:06:44.031Z,22.40
2022-08-30T13:09:27.410Z,22.40
2022-08-30T13:12:03.452Z,22.50
2022-08-30T13:14:36.379Z,22.40
2022-08-30T13:17:21.620Z,22.40
2022-08-30T13:20:00.733Z,22.60
2022-08-30T13:22:45.657Z,22.80
2022-08-30T13:25:12.899Z,22.90
2022-08-30T13:27:40.372Z,23.00
2022-08-30T13:30:14.770Z,23.00
2022-08-30T13:32:45.137Z,23.10
2022-08-30T13:35:12.872Z,23.10
2022-08-30T13:37:49.622Z,23.10
2022-08-30T13:40:19.631Z,23.20
2022-08-30T13:42:46.966Z,23.30
2022-08-30T13:48:03.379Z,23.60
2022-08-30T13:50:35.143Z,23.60
2022-08-30T13:53:02.561Z,23.40
2022-08-30T13:55:29.878Z,23.40
2022-08-30T13:57:57.948Z,23.60
2022-08-30T14:00:25.955Z,23.80
2022-08-30T14:02:57.681Z,23.80
2022-08-30T14:06:15.693Z,24.00
2022-08-30T14:08:48.593Z,24.00
2022-08-30T14:11:21.193Z,24.20
2022-08-30T14:16:42.403Z,24.10
2022-08-30T14:19:12.345Z,24.10
2022-08-30T14:21:40.334Z,24.20
2022-08-30T14:24:08.136Z,24.10
2022-08-30T14:26:35.673Z,24.20
2022-08-30T14:29:09.131Z,24.30
2022-08-30T14:31:37.970Z,24.40
2022-08-30T14:34:05.995Z,24.40
2022-08-30T14:36:34.246Z,24.40
2022-08-30T14:39:02.471Z,24.30
2022-08-30T14:41:34.170Z,24.40
2022-08-30T14:44:01.881Z,24.30
2022-08-30T14:46:29.169Z,24.20
2022-08-30T14:48:59.362Z,24.30
2022-08-30T14:51:32.657Z,24.30
2022-08-30T14:54:03.759Z,24.30
2022-08-30T14:56:31.584Z,24.30
2022-08-30T14:59:00.677Z,24.30
2022-08-30T15:01:28.679Z,24.30
2022-08-30T15:03:56.741Z,24.20
2022-08-30T15:06:24.314Z,24.40
2022-08-30T15:08:54.896Z,24.30
2022-08-30T15:11:29.606Z,24.20
2022-08-30T15:13:56.914Z,24.30
2022-08-30T15:16:36.117Z,24.00
2022-08-30T15:19:08.733Z,23.70
2022-08-30T15:21:42.948Z,23.60
2022-08-30T15:24:14.240Z,23.50
2022-08-30T15:26:46.668Z,23.40
2022-08-30T15:29:19.977Z,23.40
2022-08-30T15:31:51.298Z,23.30
2022-08-30T15:34:27.906Z,23.30
2022-08-30T15:36:57.823Z,23.20
2022-08-30T15:39:25.936Z,23.20
2022-08-30T15:42:01.090Z,23.10
2022-08-30T15:44:32.111Z,23.10
2022-08-30T15:46:59.569Z,23.00
2022-08-30T15:49:26.850Z,23.00
2022-08-30T15:51:56.600Z,23.00
2022-08-30T15:54:24.993Z,22.90
2022-08-30T15:57:05.801Z,22.90
2022-08-30T15:59:33.167Z,22.90
2022-08-30T16:02:00.383Z,22.80
2022-08-30T16:04:30.371Z,22.70
2022-08-30T16:06:57.575Z,22.60
2022-08-30T16:09:32.619Z,22.60
2022-08-30T16:12:04.914Z,22.60
2022-08-30T16:14:33.056Z,22.60
2022-08-30T16:17:04.178Z,22.60
2022-08-30T16:19:32.424Z,22.60
2022-08-30T16:21:59.869Z,22.50
2022-08-30T16:24:27.446Z,22.50
2022-08-30T16:26:55.152Z,22.50
2022-08-30T16:29:22.565Z,22.40
2022-08-30T16:31:50.313Z,22.50
2022-08-30T16:34:20.362Z,22.40
2022-08-30T16:36:48.131Z,22.40
2022-08-30T16:39:16.144Z,22.40
2022-08-30T16:41:45.626Z,22.40
2022-08-30T16:44:15.638Z,22.30
2022-08-30T16:46:53.046Z,22.30
2022-08-30T16:49:34.001Z,22.30
2022-08-30T16:52:01.630Z,22.30
2022-08-30T16:54:32.325Z,22.30
2022-08-30T16:57:06.643Z,22.20
2022-08-30T16:59:34.075Z,22.20
2022-08-30T17:02:01.644Z,22.20
2022-08-30T17:04:30.794Z,22.20
2022-08-30T17:06:57.992Z,22.20
2022-08-30T17:09:26.035Z,22.10
2022-08-30T17:12:00.612Z,22.10
2022-08-30T17:14:31.254Z,22.00
2022-08-30T17:17:02.266Z,22.10
2022-08-30T17:19:30.191Z,22.20
2022-08-30T17:21:58.350Z,22.30
2022-08-30T17:24:26.445Z,22.30
2022-08-30T17:26:58.377Z,22.30
2022-08-30T17:29:26.645Z,22.30
2022-08-30T17:31:57.210Z,22.40
2022-08-30T17:34:26.558Z,22.40
2022-08-30T17:36:55.628Z,22.40
2022-08-30T17:39:23.689Z,22.40
2022-08-30T17:41:54.268Z,22.50
2022-08-30T17:44:25.921Z,22.50
2022-08-30T17:46:54.032Z,22.50
2022-08-30T17:49:22.388Z,22.50
2022-08-30T17:51:55.688Z,22.50
2022-08-30T17:54:24.511Z,22.50
2022-08-30T17:56:54.445Z,22.50
2022-08-30T17:59:25.078Z,22.50
2022-08-30T18:01:54.796Z,22.50
2022-08-30T18:04:25.281Z,22.50
2022-08-30T18:06:53.772Z,22.50
2022-08-30T18:09:24.681Z,22.50
2022-08-30T18:11:52.320Z,22.50
2022-08-30T18:14:23.868Z,22.50
2022-08-30T18:16:54.362Z,22.50
2022-08-30T18:19:24.324Z,22.50
2022-08-30T18:21:52.775Z,22.40
2022-08-30T18:24:20.920Z,22.40
2022-08-30T18:26:57.441Z,22.40
2022-08-30T18:32:12.301Z,22.40
2022-08-30T18:34:42.984Z,22.40
2022-08-30T18:37:12.342Z,22.30
2022-08-30T18:39:41.187Z,22.30
2022-08-30T18:42:09.741Z,22.30
2022-08-30T18:44:37.692Z,22.30
2022-08-30T18:47:05.895Z,22.30
2022-08-30T18:49:35.174Z,22.30
2022-08-30T18:52:07.408Z,22.30
2022-08-30T18:54:42.482Z,22.20
2022-08-30T18:57:10.614Z,22.20
2022-08-30T18:59:39.756Z,22.20
2022-08-30T19:02:12.763Z,22.20
2022-08-30T19:04:42.788Z,22.10
2022-08-30T19:07:14.827Z,22.10
2022-08-30T19:09:43.104Z,22.10
2022-08-30T19:15:01.025Z,22.10
2022-08-30T19:17:38.575Z,22.00
2022-08-30T19:20:08.786Z,22.00
2022-08-30T19:23:08.566Z,22.00
2022-08-30T19:25:31.880Z,22.00
2022-08-30T19:27:59.140Z,22.00
2022-08-30T19:30:29.995Z,22.00
2022-08-30T19:32:57.511Z,21.90
2022-08-30T19:35:25.880Z,21.90
2022-08-30T19:37:56.248Z,21.90
2022-08-30T19:40:23.687Z,21.80
2022-08-30T19:42:53.202Z,21.80
2022-08-30T19:45:23.107Z,21.80
2022-08-30T19:47:51.446Z,21.80
2022-08-30T19:50:20.010Z,21.80
2022-08-30T19:52:53.795Z,21.80
2022-08-30T19:55:28.173Z,21.70
2022-08-30T19:57:56.137Z,21.70
2022-08-30T20:00:23.638Z,21.70
2022-08-30T20:02:51.467Z,21.70
2022-08-30T20:05:20.192Z,21.70
2022-08-30T20:07:51.037Z,21.70
2022-08-30T20:10:20.670Z,21.60
2022-08-30T20:12:49.826Z,21.60
2022-08-30T20:15:18.592Z,21.60
2022-08-30T20:18:05.811Z,21.60
2022-08-30T20:20:38.804Z,21.50
2022-08-30T20:23:06.321Z,21.50
2022-08-30T20:24:27.093Z,22.40
2022-08-30T20:24:32.127Z,22.10
2022-08-30T20:25:37.888Z,21.50
2022-08-30T20:28:08.817Z,21.50
2022-08-30T20:30:36.148Z,21.40
2022-08-30T20:33:07.069Z,21.40
2022-08-30T20:35:36.544Z,21.40
2022-08-30T20:38:06.662Z,21.40
2022-08-30T20:40:36.311Z,21.30
2022-08-30T20:43:04.453Z,21.30
2022-08-30T20:45:35.488Z,21.30
2022-08-30T20:48:04.577Z,21.30
2022-08-30T20:50:32.187Z,21.30
2022-08-30T20:52:59.402Z,21.30
2022-08-30T20:55:26.632Z,21.30
2022-08-30T20:57:53.775Z,21.20
2022-08-30T21:00:21.097Z,21.20
2022-08-30T21:02:48.998Z,21.20
2022-08-30T21:05:17.902Z,21.20
2022-08-30T21:07:46.292Z,21.10
2022-08-30T21:10:14.237Z,21.10
2022-08-30T21:12:42.928Z,21.10
2022-08-30T21:15:27.306Z,21.10
2022-08-30T21:17:57.877Z,21.00
2022-08-30T21:20:30.362Z,21.00
2022-08-30T21:22:57.574Z,21.00
2022-08-30T21:25:24.817Z,21.00
2022-08-30T21:27:53.802Z,20.90
2022-08-30T21:30:24.080Z,21.00
2022-08-30T21:32:51.367Z,20.90
2022-08-30T21:35:36.998Z,20.90
2022-08-30T21:38:06.671Z,20.90
2022-08-30T21:40:33.874Z,20.80
2022-08-30T21:43:05.569Z,20.80
2022-08-30T21:45:37.961Z,20.80
2022-08-30T21:48:08.357Z,20.70
2022-08-30T21:50:39.935Z,20.80
2022-08-30T21:53:07.224Z,20.70
2022-08-30T21:55:34.485Z,20.70
2022-08-30T21:58:01.655Z,20.60
2022-08-30T22:00:33.773Z,20.60
2022-08-30T22:03:01.184Z,20.60
2022-08-30T22:05:31.238Z,20.60
2022-08-30T22:07:58.368Z,20.60
2022-08-30T22:10:27.390Z,20.50
2022-08-30T22:12:57.319Z,20.50
2022-08-30T22:15:26.859Z,20.50
2022-08-30T22:17:54.248Z,20.40
2022-08-30T22:20:21.429Z,20.40
2022-08-30T22:22:48.709Z,20.40
2022-08-30T22:25:15.884Z,20.40
2022-08-30T22:27:46.094Z,20.30
2022-08-30T22:30:13.489Z,20.30
2022-08-30T22:32:41.194Z,20.30
2022-08-30T22:35:08.607Z,20.30
2022-08-30T22:37:38.760Z,20.30
2022-08-30T22:40:06.447Z,20.20
2022-08-30T22:42:33.687Z,20.20
2022-08-30T22:45:00.927Z,20.20
2022-08-30T22:47:28.037Z,20.10
2022-08-30T22:49:55.248Z,20.10
2022-08-30T22:52:25.606Z,20.10
2022-08-30T22:54:55.578Z,20.10
2022-08-30T22:57:22.873Z,20.00
2022-08-30T22:59:51.064Z,20.00
2022-08-30T23:02:18.701Z,20.00
2022-08-30T23:04:45.975Z,20.00
2022-08-30T23:07:13.192Z,20.00
2022-08-30T23:09:43.081Z,19.90
2022-08-30T23:12:10.253Z,19.90
2022-08-30T23:14:37.384Z,19.90
2022-08-30T23:17:04.671Z,19.90
2022-08-30T23:19:32.253Z,19.80
2022-08-30T23:21:59.402Z,19.80
2022-08-30T23:24:48.850Z,19.80
2022-08-30T23:27:38.162Z,19.80
2022-08-30T23:30:25.551Z,19.70
2022-08-30T23:33:11.832Z,19.70
2022-08-30T23:36:00.244Z,19.70
2022-08-30T23:38:46.160Z,19.70
2022-08-30T23:41:37.973Z,19.60
2022-08-30T23:44:26.419Z,19.60
2022-08-30T23:47:12.170Z,19.60
2022-08-30T23:49:59.142Z,19.50
2022-08-30T23:52:44.939Z,19.50
2022-08-30T23:55:33.189Z,19.50
2022-08-30T23:58:19.060Z,19.40
